Time;durP1;ratioP1;P1;durP2;ratioP2;P2;SDS_P1;SDS_P2;PMS_P1;PMS_P2;Temp;Humidity;BMP_temperature;BMP_pressure;BME280_temperature;BME280_humidity;BME280_pressure;Samples;Min_cycle;Max_cycle;Signal;HPM_P1;HPM_P2
2021/07/23 00:00:32;;;;;;;7.47;4.43;;;;;;;21.82;56.48;101402.00;5100679;28;20320;-61
2021/07/23 00:02:57;;;;;;;6.00;4.40;;;;;;;21.78;55.96;101405.03;5092758;28;20334;-61
2021/07/23 00:05:22;;;;;;;10.13;4.93;;;;;;;21.76;56.37;101406.78;5107093;28;20265;-61
2021/07/23 00:07:48;;;;;;;6.83;4.60;;;;;;;21.75;56.55;101402.44;5107397;28;20563;-61
2021/07/23 00:10:13;;;;;;;8.13;5.00;;;;;;;21.68;56.77;101397.97;5109563;28;20186;-61
2021/07/23 00:12:39;;;;;;;8.13;4.77;;;;;;;21.28;57.03;101340.66;5111969;28;20261;-61
2021/07/23 00:15:05;;;;;;;6.37;4.57;;;;;;;21.69;57.21;101398.75;5092241;28;20190;-61
2021/07/23 00:17:30;;;;;;;6.93;5.00;;;;;;;21.66;57.10;101405.34;5091159;28;20199;-61
2021/07/23 00:19:56;;;;;;;8.47;5.00;;;;;;;21.62;56.96;101399.91;5092560;28;20181;-62
2021/07/23 00:22:21;;;;;;;6.83;4.53;;;;;;;21.58;57.32;101404.97;5092097;28;20187;-61
2021/07/23 00:24:47;;;;;;;7.57;4.50;;;;;;;21.57;57.26;101405.44;5104698;28;20200;-61
2021/07/23 00:27:15;;;;;;;6.40;4.80;;;;;;;20.91;57.28;101309.31;5102180;28;20175;-61
2021/07/23 00:29:40;;;;;;;7.40;4.90;;;;;;;21.51;57.25;101401.75;5091653;28;20252;-61
2021/07/23 00:32:06;;;;;;;7.40;4.50;;;;;;;20.62;58.60;101291.63;5092153;28;20209;-61
2021/07/23 00:34:31;;;;;;;6.00;4.90;;;;;;;21.31;58.89;101393.22;5092300;28;20643;-61
2021/07/23 00:36:57;;;;;;;7.20;4.87;;;;;;;21.05;59.66;101395.09;5091285;28;20203;-61
2021/07/23 00:39:22;;;;;;;6.83;4.50;;;;;;;20.70;59.61;101349.09;5091936;28;20622;-61
2021/07/23 00:41:48;;;;;;;8.23;4.80;;;;;;;20.88;59.92;101394.75;5111070;28;20230;-61
2021/07/23 00:44:13;;;;;;;6.63;4.47;;;;;;;20.95;59.92;101405.69;5111849;28;20190;-61
2021/07/23 00:46:39;;;;;;;6.17;5.10;;;;;;;20.70;60.10;101374.44;5111682;28;20170;-61
2021/07/23 00:49:05;;;;;;;7.37;5.10;;;;;;;20.32;60.35;101354.78;5105915;28;20205;-61
2021/07/23 00:51:31;;;;;;;5.77;4.60;;;;;;;20.44;60.84;101393.94;5091954;28;20182;-62
2021/07/23 00:53:57;;;;;;;8.20;5.10;;;;;;;20.34;61.22;101397.28;5092127;28;20500;-61
2021/07/23 00:56:23;;;;;;;8.17;5.33;;;;;;;20.29;61.45;101407.19;5091101;28;20203;-61
2021/07/23 00:58:48;;;;;;;8.97;5.43;;;;;;;20.30;61.25;101403.09;5090908;28;20357;-61
2021/07/23 01:01:14;;;;;;;6.83;5.17;;;;;;;20.31;61.28;101407.47;5091725;28;20664;-61
2021/07/23 01:03:42;;;;;;;11.07;6.50;;;;;;;20.19;61.60;101396.47;5091508;28;20191;-61
2021/07/23 01:06:08;;;;;;;9.93;5.70;;;;;;;20.16;61.89;101397.44;5090946;28;20197;-61
2021/07/23 01:08:34;;;;;;;7.13;5.33;;;;;;;19.96;62.28;101385.97;5094406;28;20179;-61
2021/07/23 01:10:59;;;;;;;7.70;5.80;;;;;;;19.83;62.65;101360.88;5111019;28;20657;-61
2021/07/23 01:13:25;;;;;;;12.93;6.50;;;;;;;20.01;62.53;101394.50;5112023;28;20566;-61
2021/07/23 01:15:50;;;;;;;8.40;5.57;;;;;;;20.00;62.87;101397.84;5110896;28;20174;-61
2021/07/23 01:18:16;;;;;;;8.27;5.77;;;;;;;19.61;63.17;101346.34;5110827;28;20208;-61
2021/07/23 01:20:44;;;;;;;8.37;5.57;;;;;;;20.00;62.76;101398.59;5110952;28;20185;-61
2021/07/23 01:23:13;;;;;;;8.60;5.40;;;;;;;19.65;62.75;101365.84;5111713;28;20627;-61
2021/07/23 01:25:39;;;;;;;10.57;5.90;;;;;;;19.37;62.42;101291.31;5091174;28;20218;-61
2021/07/23 01:28:05;;;;;;;10.67;5.90;;;;;;;20.09;62.02;101395.75;5089641;28;20224;-61
2021/07/23 01:30:35;;;;;;;9.80;6.23;;;;;;;19.35;62.01;101280.56;5090735;28;20185;-61
2021/07/23 01:33:00;;;;;;;9.60;6.30;;;;;;;20.15;61.81;101395.84;5091266;28;20579;-61
2021/07/23 01:35:26;;;;;;;10.30;5.77;;;;;;;20.14;61.91;101397.91;5109558;28;20184;-61
2021/07/23 01:37:54;;;;;;;9.07;5.53;;;;;;;20.16;61.95;101395.38;5108199;28;20196;-61
2021/07/23 01:40:20;;;;;;;7.80;5.53;;;;;;;20.20;61.79;101389.56;5091093;28;20206;-61
2021/07/23 01:42:46;;;;;;;7.77;6.17;;;;;;;20.18;61.63;101387.25;5090163;28;20225;-61
2021/07/23 01:45:12;;;;;;;8.27;5.70;;;;;;;20.17;61.88;101393.34;5090986;28;20571;-61
2021/07/23 01:47:38;;;;;;;9.07;5.50;;;;;;;19.35;61.81;101252.44;5089365;28;20178;-61
2021/07/23 01:50:04;;;;;;;9.30;5.97;;;;;;;19.74;61.98;101332.81;5091093;28;20569;-61
2021/07/23 01:52:29;;;;;;;8.13;5.40;;;;;;;19.95;61.95;101359.84;5089984;28;20182;-61
2021/07/23 01:54:55;;;;;;;8.00;5.37;;;;;;;20.17;62.05;101393.34;5090995;28;20676;-61
2021/07/23 01:57:21;;;;;;;8.73;5.30;;;;;;;20.11;62.03;101389.66;5089498;28;20575;-61
2021/07/23 01:59:46;;;;;;;6.83;5.20;;;;;;;20.13;61.96;101395.56;5071992;28;20220;-61
2021/07/23 02:02:12;;;;;;;8.37;5.27;;;;;;;19.18;61.90;101275.81;5090054;28;20232;-61
2021/07/23 02:04:37;;;;;;;7.07;5.10;;;;;;;19.74;62.63;101394.69;5090297;28;20565;-61
2021/07/23 02:07:03;;;;;;;10.63;6.00;;;;;;;19.73;62.49;101390.31;5089904;28;20584;-61
2021/07/23 02:09:28;;;;;;;8.07;5.73;;;;;;;19.64;63.05;101395.19;5089824;28;20275;-61
2021/07/23 02:11:55;;;;;;;12.63;6.87;;;;;;;19.59;62.92;101393.81;5090663;28;20206;-61
2021/07/23 02:14:20;;;;;;;25.43;7.50;;;;;;;19.57;63.25;101390.72;5090414;28;20588;-61
2021/07/23 02:16:46;;;;;;;37.37;8.23;;;;;;;19.09;63.16;101323.59;5089435;28;20216;-61
2021/07/23 02:19:11;;;;;;;35.23;8.60;;;;;;;19.35;63.25;101370.50;5089686;28;20185;-61
2021/07/23 02:21:37;;;;;;;21.03;6.63;;;;;;;19.61;63.35;101396.16;5090501;28;20213;-61
2021/07/23 02:24:05;;;;;;;25.40;8.53;;;;;;;19.45;63.87;101399.34;5089942;28;20188;-61
2021/07/23 02:26:31;;;;;;;19.87;7.77;;;;;;;18.55;63.96;101254.34;5089625;28;20208;-61
2021/07/23 02:28:57;;;;;;;27.07;8.43;;;;;;;19.50;63.69;101390.28;5088972;28;20206;-61
2021/07/23 02:31:24;;;;;;;15.13;6.33;;;;;;;19.41;63.81;101390.31;5090261;28;20190;-61
2021/07/23 02:33:49;;;;;;;13.60;5.87;;;;;;;19.53;63.74;101404.16;5090122;28;20271;-61
2021/07/23 02:36:15;;;;;;;10.20;6.03;;;;;;;19.56;63.54;101397.59;5089101;28;20281;-61
2021/07/23 02:38:40;;;;;;;8.03;6.40;;;;;;;19.57;63.11;101399.16;5093098;28;20201;-61
2021/07/23 02:41:06;;;;;;;8.67;6.33;;;;;;;19.58;63.25;101403.50;5096642;28;20181;-61
2021/07/23 02:43:31;;;;;;;8.73;5.53;;;;;;;19.57;63.08;101403.97;5096988;28;20250;-61
2021/07/23 02:45:57;;;;;;;9.53;5.87;;;;;;;19.53;63.13;101403.38;5096294;28;20243;-61
2021/07/23 02:48:22;;;;;;;10.47;5.83;;;;;;;19.46;63.24;101400.91;5096318;28;20174;-61
2021/07/23 02:50:48;;;;;;;8.13;5.80;;;;;;;19.31;63.10;101388.78;5096801;28;20201;-61
2021/07/23 02:53:14;;;;;;;10.23;5.70;;;;;;;18.98;63.13;101351.41;5096920;28;20209;-61
2021/07/23 02:55:39;;;;;;;9.97;6.60;;;;;;;19.27;63.49;101408.63;5096242;28;20182;-61
2021/07/23 02:58:05;;;;;;;10.40;6.60;;;;;;;18.62;63.51;101296.09;5095794;28;20179;-61
2021/07/23 03:00:30;;;;;;;12.57;6.63;;;;;;;19.28;63.79;101401.75;5096336;28;20282;-61
2021/07/23 03:02:56;;;;;;;12.07;6.70;;;;;;;19.35;63.81;101401.41;5096213;28;20648;-61
2021/07/23 03:05:21;;;;;;;8.97;6.10;;;;;;;19.29;63.76;101417.34;5097125;28;20179;-61
2021/07/23 03:07:53;;;;;;;12.27;6.30;;;;;;;19.24;63.60;101406.75;5095017;28;20208;-61
2021/07/23 03:10:19;;;;;;;17.73;7.40;;;;;;;18.69;63.33;101335.09;5096537;28;20636;-61
2021/07/23 03:12:44;;;;;;;16.50;7.50;;;;;;;19.13;63.54;101398.03;5095649;28;20219;-61
2021/07/23 03:15:11;;;;;;;8.77;6.50;;;;;;;19.15;63.31;101400.38;5096936;28;20540;-61
2021/07/23 03:17:36;;;;;;;10.70;6.97;;;;;;;18.60;63.63;101317.47;5095155;28;20233;-61
2021/07/23 03:20:02;;;;;;;16.33;7.10;;;;;;;19.28;63.69;101412.19;5096557;28;20189;-61
2021/07/23 03:22:29;;;;;;;10.73;6.60;;;;;;;19.32;63.42;101404.38;5096136;28;20326;-61
2021/07/23 03:24:55;;;;;;;6.40;5.80;;;;;;;19.31;63.24;101405.66;5096891;28;20186;-61
2021/07/23 03:27:21;;;;;;;12.43;6.23;;;;;;;19.25;63.13;101413.94;5095320;28;20198;-61
2021/07/23 03:29:46;;;;;;;10.80;6.60;;;;;;;19.24;63.67;101415.19;5095437;28;20275;-61
2021/07/23 03:32:12;;;;;;;7.30;5.80;;;;;;;19.23;63.05;101412.84;5096580;28;20262;-61
2021/07/23 03:34:38;;;;;;;12.90;6.07;;;;;;;19.26;63.13;101418.31;5096016;28;20186;-61
2021/07/23 03:37:03;;;;;;;18.63;6.97;;;;;;;19.19;63.45;101417.84;5095709;28;20209;-61
2021/07/23 03:39:29;;;;;;;10.30;6.20;;;;;;;19.18;63.20;101417.03;5095590;28;20231;-61
2021/07/23 03:41:54;;;;;;;7.80;5.70;;;;;;;19.25;63.81;101422.34;5104043;28;20801;-61
2021/07/23 03:44:20;;;;;;;6.07;5.33;;;;;;;19.27;63.87;101417.06;5116068;28;20174;-61
2021/07/23 03:46:45;;;;;;;13.07;5.60;;;;;;;19.23;63.57;101415.66;5116090;28;20199;-61
2021/07/23 03:49:10;;;;;;;9.53;5.83;;;;;;;19.18;63.89;101414.25;5114937;28;20224;-61
2021/07/23 03:51:36;;;;;;;8.57;5.80;;;;;;;19.14;64.13;101422.03;5113011;28;20170;-61
2021/07/23 03:54:01;;;;;;;11.00;6.30;;;;;;;19.11;64.13;101413.78;5096229;28;20174;-61
2021/07/23 03:56:27;;;;;;;10.87;6.10;;;;;;;18.92;64.27;101392.59;5092381;28;20205;-61
2021/07/23 03:58:52;;;;;;;12.27;6.73;;;;;;;19.15;64.26;101423.63;5111302;28;20201;-61
2021/07/23 04:01:18;;;;;;;8.63;6.27;;;;;;;19.17;64.34;101425.94;5108133;28;20723;-61
2021/07/23 04:03:44;;;;;;;9.73;6.13;;;;;;;19.16;64.78;101421.59;5076565;28;20181;-61
2021/07/23 04:06:09;;;;;;;7.10;6.40;;;;;;;19.21;64.55;101424.53;5104998;28;20167;-61
2021/07/23 04:08:34;;;;;;;13.63;6.40;;;;;;;19.24;64.35;101426.44;5109044;28;20179;-61
2021/07/23 04:11:00;;;;;;;11.03;6.53;;;;;;;19.24;64.68;101434.84;5101624;28;20679;-60
2021/07/23 04:13:25;;;;;;;11.87;6.73;;;;;;;19.31;64.62;101433.75;5112898;28;20239;-61
2021/07/23 04:15:51;;;;;;;13.13;6.20;;;;;;;19.12;64.49;101402.09;5100333;28;20615;-61
2021/07/23 04:18:17;;;;;;;9.33;6.17;;;;;;;19.50;64.57;101432.44;5073193;28;20233;-61
2021/07/23 04:20:43;;;;;;;9.40;6.50;;;;;;;19.59;64.03;101427.56;5092763;28;20187;-61
2021/07/23 04:23:08;;;;;;;8.53;5.83;;;;;;;18.88;63.39;101319.75;5074324;28;20183;-61
2021/07/23 04:25:34;;;;;;;8.90;5.87;;;;;;;19.79;63.16;101432.63;5110907;28;20187;-61
2021/07/23 04:27:59;;;;;;;12.13;6.20;;;;;;;19.90;62.73;101439.28;5110775;28;20182;-61
2021/07/23 04:30:25;;;;;;;8.60;5.80;;;;;;;19.43;63.13;101348.44;5112434;28;20182;-61
2021/07/23 04:32:52;;;;;;;12.37;6.50;;;;;;;19.48;62.53;101347.78;5111398;28;20262;-61
2021/07/23 04:35:17;;;;;;;9.00;6.33;;;;;;;19.31;61.91;101296.03;5112861;28;20179;-61
2021/07/23 04:37:43;;;;;;;12.03;6.60;;;;;;;20.28;61.34;101427.34;5110732;28;20713;-61
2021/07/23 04:40:09;;;;;;;11.13;6.37;;;;;;;20.45;61.53;101434.91;5111744;28;20637;-61
2021/07/23 04:42:34;;;;;;;9.50;6.43;;;;;;;20.56;61.33;101437.16;5111419;28;20220;-61
2021/07/23 04:45:02;;;;;;;12.13;5.90;;;;;;;20.66;60.89;101441.44;5112788;28;20208;-61
2021/07/23 04:47:28;;;;;;;12.17;6.17;;;;;;;20.75;60.70;101444.97;5090004;28;20172;-62
2021/07/23 04:49:53;;;;;;;9.97;5.80;;;;;;;20.86;60.65;101435.94;5083639;28;20205;-61
2021/07/23 04:52:19;;;;;;;10.03;6.03;;;;;;;20.99;60.12;101434.44;5089950;28;20180;-61
2021/07/23 04:54:44;;;;;;;9.40;5.90;;;;;;;20.21;59.87;101296.22;5081087;28;20194;-61
2021/07/23 04:57:14;;;;;;;12.73;6.50;;;;;;;21.22;59.79;101433.59;5083939;28;20236;-61
2021/07/23 04:59:39;;;;;;;11.17;6.20;;;;;;;21.36;59.78;101438.44;5089711;28;20178;-62
2021/07/23 05:02:04;;;;;;;8.33;5.47;;;;;;;21.39;59.56;101422.59;5090139;28;20665;-61
2021/07/23 05:04:31;;;;;;;7.60;5.83;;;;;;;21.58;59.51;101435.97;5074568;28;20179;-61
2021/07/23 05:06:56;;;;;;;11.33;6.10;;;;;;;21.68;59.83;101443.09;5078644;28;20269;-61
2021/07/23 05:09:22;;;;;;;7.83;6.10;;;;;;;21.44;59.43;101379.63;5088715;28;20265;-61
2021/07/23 05:11:47;;;;;;;11.80;6.37;;;;;;;21.93;59.77;101436.81;5089587;28;20695;-61
2021/07/23 05:14:15;;;;;;;11.87;6.97;;;;;;;21.83;59.76;101403.56;5089956;28;20179;-61
2021/07/23 05:16:40;;;;;;;9.60;7.00;;;;;;;22.03;60.38;101432.59;5086407;28;20195;-61
2021/07/23 05:19:06;;;;;;;9.13;7.67;;;;;;;22.08;60.19;101428.28;5088525;28;20687;-61
2021/07/23 05:21:35;;;;;;;13.07;7.17;;;;;;;22.23;59.42;101435.44;5089370;28;20708;-61
2021/07/23 05:24:03;;;;;;;10.83;6.97;;;;;;;22.24;59.62;101442.63;5086334;28;20187;-61
2021/07/23 05:26:34;;;;;;;11.10;6.93;;;;;;;22.19;59.84;101437.69;5089643;28;20171;-61
2021/07/23 05:28:59;;;;;;;9.67;7.37;;;;;;;21.89;59.29;101416.47;5069717;28;20609;-61
2021/07/23 05:31:25;;;;;;;9.90;7.33;;;;;;;22.00;60.04;101430.00;5080619;28;20275;-61
2021/07/23 05:33:50;;;;;;;14.83;8.20;;;;;;;21.94;59.66;101431.94;5085485;28;20188;-61
2021/07/23 05:36:16;;;;;;;11.90;7.60;;;;;;;21.98;59.31;101447.41;5087986;28;20777;-61
2021/07/23 05:38:41;;;;;;;8.43;7.20;;;;;;;22.01;58.84;101446.41;5087488;28;20182;-61
2021/07/23 05:41:10;;;;;;;10.60;7.00;;;;;;;22.07;58.10;101438.03;5090491;28;20174;-61
2021/07/23 05:43:35;;;;;;;9.87;6.90;;;;;;;22.14;58.63;101446.06;5088185;28;20182;-61
2021/07/23 05:46:05;;;;;;;10.00;7.07;;;;;;;22.10;58.71;101451.16;5076610;28;20564;-66
2021/07/23 05:48:31;;;;;;;14.70;7.30;;;;;;;22.16;59.45;101443.56;5078603;28;20275;-66
2021/07/23 05:50:56;;;;;;;12.83;7.70;;;;;;;22.31;57.92;101439.38;5087620;28;20682;-66
2021/07/23 05:53:22;;;;;;;7.90;6.70;;;;;;;22.44;58.05;101441.84;5085991;28;20189;-66
2021/07/23 05:55:47;;;;;;;12.23;7.13;;;;;;;22.59;56.24;101439.75;5087160;28;20178;-66
2021/07/23 05:58:13;;;;;;;9.87;6.70;;;;;;;22.70;56.16;101437.06;5085164;28;20175;-66
2021/07/23 06:00:38;;;;;;;9.40;6.53;;;;;;;22.83;56.78;101432.59;5087195;28;20183;-66
2021/07/23 06:03:04;;;;;;;8.20;6.63;;;;;;;22.76;56.10;101427.38;5081254;28;20705;-66
2021/07/23 06:05:29;;;;;;;8.83;6.33;;;;;;;22.96;55.07;101435.81;5078656;28;20179;-66
2021/07/23 06:07:55;;;;;;;10.87;6.97;;;;;;;23.02;56.37;101445.13;5077663;28;20175;-66
2021/07/23 06:10:20;;;;;;;8.87;7.23;;;;;;;23.11;56.37;101432.88;5087473;28;20179;-66
2021/07/23 06:12:46;;;;;;;8.57;6.60;;;;;;;23.28;54.79;101440.25;5086366;28;20202;-66
2021/07/23 06:15:11;;;;;;;8.90;6.83;;;;;;;23.39;54.03;101443.19;5088311;28;20183;-66
2021/07/23 06:17:37;;;;;;;8.93;6.93;;;;;;;23.38;53.63;101418.25;5085472;28;20206;-66
2021/07/23 06:20:04;;;;;;;8.33;6.33;;;;;;;23.61;53.42;101436.94;5087506;28;20672;-66
2021/07/23 06:22:29;;;;;;;7.73;6.63;;;;;;;23.65;53.70;101426.94;5069578;28;20205;-66
2021/07/23 06:24:56;;;;;;;8.90;6.57;;;;;;;23.69;53.70;101440.88;5086070;28;20260;-66
2021/07/23 06:27:22;;;;;;;9.63;6.87;;;;;;;23.65;52.66;101409.94;5085551;28;20297;-66
2021/07/23 06:29:49;;;;;;;11.10;6.70;;;;;;;23.24;53.00;101334.31;5086406;28;20175;-66
2021/07/23 06:32:15;;;;;;;9.43;7.10;;;;;;;23.30;52.69;101330.25;5087159;28;20539;-66
2021/07/23 06:34:40;;;;;;;10.67;7.07;;;;;;;24.28;51.59;101448.22;5086312;28;20208;-66
2021/07/23 06:37:06;;;;;;;8.73;6.50;;;;;;;23.42;51.86;101294.31;5086722;28;20234;-66
2021/07/23 06:39:32;;;;;;;10.20;7.27;;;;;;;24.51;51.34;101441.34;5085978;28;20186;-66
2021/07/23 06:41:58;;;;;;;10.17;7.00;;;;;;;24.60;50.95;101449.69;5086842;28;20223;-67
2021/07/23 06:44:27;;;;;;;11.50;6.50;;;;;;;24.78;50.96;101442.78;5086705;28;20717;-66
2021/07/23 06:46:52;;;;;;;8.43;6.87;;;;;;;25.01;50.85;101444.38;5085436;28;20732;-67
2021/07/23 06:49:18;;;;;;;9.47;6.77;;;;;;;25.05;50.72;101445.69;5087947;28;20183;-66
2021/07/23 06:51:43;;;;;;;12.57;7.50;;;;;;;25.04;50.44;101449.81;5086584;28;20193;-68
2021/07/23 06:54:09;;;;;;;9.30;6.67;;;;;;;25.04;50.78;101437.69;5086365;28;20178;-68
2021/07/23 06:56:34;;;;;;;9.10;6.90;;;;;;;25.00;47.20;101440.00;5084812;28;21181;-68
2021/07/23 06:58:59;;;;;;;11.50;6.70;;;;;;;25.05;48.25;101439.22;5085890;28;20215;-68
2021/07/23 07:01:25;;;;;;;13.97;7.07;;;;;;;25.03;47.29;101410.63;5085842;28;20582;-67
2021/07/23 07:03:50;;;;;;;12.67;7.30;;;;;;;25.48;47.74;101444.19;5086847;28;20702;-68
2021/07/23 07:06:16;;;;;;;10.17;7.00;;;;;;;25.50;48.77;101450.13;5086216;28;20183;-68
2021/07/23 07:08:42;;;;;;;9.70;7.83;;;;;;;25.60;47.45;101445.75;5086172;28;20270;-68
2021/07/23 07:11:07;;;;;;;9.10;6.63;;;;;;;25.27;46.59;101439.28;5086849;28;20186;-68
2021/07/23 07:13:34;;;;;;;11.03;6.53;;;;;;;25.31;46.34;101442.63;5082381;28;20188;-68
2021/07/23 07:16:02;;;;;;;10.20;6.47;;;;;;;25.30;46.72;101443.94;5078196;28;20173;-68
2021/07/23 07:18:27;;;;;;;12.33;7.07;;;;;;;25.38;46.93;101431.53;5085478;28;20185;-68
2021/07/23 07:20:53;;;;;;;10.20;7.10;;;;;;;25.55;46.03;101442.91;5087599;28;20178;-68
2021/07/23 07:23:18;;;;;;;10.23;6.87;;;;;;;25.73;46.74;101443.16;5085839;28;20661;-68
2021/07/23 07:25:44;;;;;;;6.97;5.60;;;;;;;25.96;46.42;101426.88;5086994;28;20220;-68
2021/07/23 07:28:09;;;;;;;10.43;6.43;;;;;;;25.98;45.98;101429.97;5085342;28;20181;-68
2021/07/23 07:30:36;;;;;;;9.23;6.17;;;;;;;26.11;45.29;101427.34;5088351;28;20300;-68
2021/07/23 07:33:02;;;;;;;7.40;6.47;;;;;;;26.04;44.50;101437.19;5088478;28;20547;-68
2021/07/23 07:35:27;;;;;;;9.47;6.33;;;;;;;25.71;46.40;101383.28;5090198;28;20208;-68
2021/07/23 07:37:53;;;;;;;10.17;6.53;;;;;;;26.07;46.48;101421.94;5084409;28;20199;-68
2021/07/23 07:40:18;;;;;;;8.33;6.20;;;;;;;25.93;47.66;101437.22;5090060;28;20195;-68
2021/07/23 07:42:44;;;;;;;8.33;6.43;;;;;;;25.89;46.71;101442.34;5090607;28;20302;-68
2021/07/23 07:45:10;;;;;;;11.40;6.60;;;;;;;25.89;45.80;101438.75;5096432;28;20178;-68
2021/07/23 07:47:35;;;;;;;10.13;6.50;;;;;;;25.90;47.11;101435.38;5090926;28;20387;-68
2021/07/23 07:50:01;;;;;;;9.07;5.90;;;;;;;25.61;46.52;101367.81;5093588;28;20216;-68
2021/07/23 07:52:26;;;;;;;7.93;5.87;;;;;;;26.07;45.48;101438.22;5102123;28;20559;-69
2021/07/23 07:54:52;;;;;;;7.47;6.27;;;;;;;25.87;46.33;101441.31;5074107;28;20182;-68
2021/07/23 07:57:17;;;;;;;7.23;6.50;;;;;;;25.97;44.86;101432.03;5102427;28;20504;-68
2021/07/23 07:59:43;;;;;;;8.93;6.23;;;;;;;26.14;44.80;101434.81;5103203;28;20186;-68
2021/07/23 08:02:09;;;;;;;10.30;6.93;;;;;;;26.20;44.07;101425.00;5094296;28;20191;-68
2021/07/23 08:04:35;;;;;;;10.17;6.80;;;;;;;26.27;45.42;101432.22;5097787;28;20217;-68
2021/07/23 08:07:01;;;;;;;8.83;6.53;;;;;;;26.40;45.21;101406.84;5103172;28;20236;-68
2021/07/23 08:09:27;;;;;;;12.77;6.53;;;;;;;25.66;45.34;101283.94;5094870;28;20668;-68
2021/07/23 08:11:53;;;;;;;11.23;6.63;;;;;;;26.30;43.21;101343.09;5102957;28;20183;-68
2021/07/23 08:14:19;;;;;;;7.77;6.57;;;;;;;27.19;43.06;101433.06;5094785;28;20254;-68
2021/07/23 08:16:46;;;;;;;8.50;5.93;;;;;;;26.63;43.44;101354.28;5097765;28;20242;-68
2021/07/23 08:19:13;;;;;;;9.13;6.20;;;;;;;27.26;43.30;101434.53;5095275;28;20170;-68
2021/07/23 08:21:39;;;;;;;7.90;5.93;;;;;;;27.40;41.96;101434.19;5093780;28;20187;-68
2021/07/23 08:24:04;;;;;;;9.97;6.33;;;;;;;27.44;41.64;101431.06;5102715;28;20723;-69
2021/07/23 08:26:30;;;;;;;8.70;6.00;;;;;;;26.99;43.74;101402.16;5086955;28;20174;-68
2021/07/23 08:28:55;;;;;;;8.47;6.33;;;;;;;27.23;43.53;101429.94;5091264;28;20261;-68
2021/07/23 08:31:21;;;;;;;9.23;6.50;;;;;;;27.18;41.90;101431.50;5093305;28;20187;-68
2021/07/23 08:33:47;;;;;;;10.50;6.67;;;;;;;26.97;42.76;101418.94;5097247;28;20671;-68
2021/07/23 08:36:12;;;;;;;9.93;6.53;;;;;;;27.11;43.26;101439.81;5104348;28;20259;-68
2021/07/23 08:38:38;;;;;;;8.40;6.10;;;;;;;27.22;42.62;101429.16;5100327;28;20189;-68
2021/07/23 08:41:03;;;;;;;8.90;6.30;;;;;;;27.18;41.79;101433.59;5096433;28;20256;-66
2021/07/23 08:43:30;;;;;;;8.67;6.60;;;;;;;27.38;40.02;101427.47;5091695;28;20175;-68
2021/07/23 08:45:56;;;;;;;8.17;6.10;;;;;;;27.61;40.97;101435.31;5099864;28;20182;-68
2021/07/23 08:48:22;;;;;;;8.68;6.65;;;;;;;27.94;41.35;101428.53;5092836;28;20713;-68
2021/07/23 08:50:48;;;;;;;10.25;6.72;;;;;;;28.28;40.48;101413.38;5101234;28;20187;-68
2021/07/23 08:53:13;;;;;;;10.45;6.70;;;;;;;28.47;39.78;101427.69;5093646;28;20186;-68
2021/07/23 08:55:39;;;;;;;9.00;6.43;;;;;;;28.44;40.68;101429.53;5089798;28;20220;-68
2021/07/23 08:58:15;;;;;;;8.65;6.47;;;;;;;28.62;40.13;101430.84;5099162;28;20641;-68
2021/07/23 09:00:41;;;;;;;10.07;6.55;;;;;;;28.72;38.89;101423.47;5096125;28;20636;-68
2021/07/23 09:03:08;;;;;;;11.10;7.15;;;;;;;28.83;38.45;101403.31;5094306;28;20185;-68
2021/07/23 09:05:39;;;;;;;13.38;7.38;;;;;;;28.90;38.67;101411.25;5095487;28;20182;-68
2021/07/23 09:08:07;;;;;;;8.95;6.68;;;;;;;29.07;37.98;101417.53;5101771;28;20182;-68
2021/07/23 09:10:33;;;;;;;9.35;6.65;;;;;;;29.38;37.73;101408.19;5106400;28;20598;-68
2021/07/23 09:13:02;;;;;;;13.05;7.20;;;;;;;29.64;37.87;101411.91;5085752;28;20197;-68
2021/07/23 09:15:29;;;;;;;8.70;6.15;;;;;;;29.72;37.29;101417.72;5084189;28;20406;-68
2021/07/23 09:17:56;;;;;;;9.80;6.22;;;;;;;29.84;37.75;101411.25;5076684;28;20207;-68
2021/07/23 09:20:24;;;;;;;9.07;6.18;;;;;;;30.01;37.79;101397.44;5099842;28;20178;-68
2021/07/23 09:23:03;;;;;;;9.02;6.15;;;;;;;30.27;36.72;101393.81;5099915;28;20183;-68
2021/07/23 09:25:33;;;;;;;9.90;5.82;;;;;;;29.69;36.57;101271.06;5099747;28;20231;-68
2021/07/23 09:27:58;;;;;;;8.52;6.10;;;;;;;30.78;35.92;101395.84;5102013;28;20277;-68
2021/07/23 09:30:42;;;;;;;11.68;6.10;;;;;;;30.81;36.40;101385.38;5100655;28;20191;-68
2021/07/23 09:33:09;;;;;;;9.38;6.20;;;;;;;30.51;36.24;101319.97;5103378;28;20717;-68
2021/07/23 09:35:35;;;;;;;8.75;6.55;;;;;;;31.06;35.79;101375.16;5103924;28;20232;-68
2021/07/23 09:38:00;;;;;;;8.38;6.15;;;;;;;31.21;35.15;101369.56;5097217;28;20206;-68
2021/07/23 09:40:39;;;;;;;9.10;6.85;;;;;;;31.14;34.05;101365.31;5100013;28;20182;-68
2021/07/23 09:43:05;;;;;;;8.80;7.20;;;;;;;31.16;33.57;101350.41;5094135;28;20220;-69
2021/07/23 09:45:33;;;;;;;8.30;6.35;;;;;;;31.33;34.06;101363.00;5090529;28;20307;-68
2021/07/23 09:48:09;;;;;;;11.10;9.77;;;;;;;31.52;33.71;101375.00;5092649;28;20719;-68
2021/07/23 09:50:39;;;;;;;13.32;9.82;;;;;;;31.32;34.43;101346.41;5092805;28;20239;-68
2021/07/23 09:53:04;;;;;;;11.18;9.30;;;;;;;31.69;34.65;101371.72;5096119;28;20178;-68
2021/07/23 09:55:32;;;;;;;11.73;9.68;;;;;;;31.85;33.02;101356.19;5088015;28;20190;-68
2021/07/23 09:57:59;;;;;;;10.55;9.02;;;;;;;31.49;33.46;101327.44;5093380;28;20226;-68
2021/07/23 10:00:26;;;;;;;14.15;9.52;;;;;;;31.53;33.49;101296.31;5087985;28;20644;-68
2021/07/23 10:02:53;;;;;;;11.57;9.13;;;;;;;32.23;33.21;101368.59;5104048;28;20189;-68
2021/07/23 10:05:24;;;;;;;12.93;9.18;;;;;;;32.42;32.21;101372.75;5095095;28;20182;-69
2021/07/23 10:07:56;;;;;;;14.80;8.38;;;;;;;32.49;32.65;101357.66;5086974;28;20670;-69
2021/07/23 10:10:22;;;;;;;9.13;7.35;;;;;;;32.09;31.99;101298.41;5101677;28;20643;-69
2021/07/23 10:12:50;;;;;;;9.32;7.07;;;;;;;31.11;32.63;101262.59;5101881;28;20186;-69
2021/07/23 10:15:16;;;;;;;8.30;6.95;;;;;;;31.61;33.56;101363.06;5089625;28;20171;-69
2021/07/23 10:17:41;;;;;;;11.75;7.38;;;;;;;31.89;34.31;101363.06;5087407;28;20203;-69
2021/07/23 10:20:08;;;;;;;7.65;6.50;;;;;;;32.19;34.06;101354.63;5088618;28;20183;-69
2021/07/23 10:22:34;;;;;;;11.55;7.30;;;;;;;32.48;33.00;101341.81;5088792;28;20254;-69
2021/07/23 10:25:00;;;;;;;9.75;6.63;;;;;;;32.62;32.89;101334.59;5080241;28;20235;-68
2021/07/23 10:27:26;;;;;;;9.32;6.70;;;;;;;32.10;32.69;101231.13;5091472;28;20201;-69
2021/07/23 10:29:52;;;;;;;9.57;6.70;;;;;;;33.10;31.55;101342.16;5087629;28;20187;-69
2021/07/23 10:32:27;;;;;;;9.75;6.88;;;;;;;33.35;32.11;101337.41;5093592;28;20207;-69
2021/07/23 10:34:55;;;;;;;8.27;6.97;;;;;;;33.31;30.57;101328.41;5095831;28;20731;-69
2021/07/23 10:37:30;;;;;;;8.18;6.78;;;;;;;33.47;31.05;101323.41;5080378;28;20206;-69
2021/07/23 10:40:07;;;;;;;9.63;6.78;;;;;;;33.41;30.98;101329.34;5092009;28;20179;-69
2021/07/23 10:42:37;;;;;;;8.00;7.00;;;;;;;33.30;30.70;101321.13;5101460;28;20695;-69
2021/07/23 10:45:05;;;;;;;8.80;6.85;;;;;;;33.10;30.61;101327.78;5095069;28;20187;-69
2021/07/23 10:47:53;;;;;;;10.45;7.55;;;;;;;32.98;31.18;101308.63;5101339;28;20178;-69
2021/07/23 10:50:25;;;;;;;7.88;6.47;;;;;;;33.09;31.53;101317.66;5079598;28;20316;-69
2021/07/23 10:52:51;;;;;;;9.70;6.68;;;;;;;33.14;31.13;101316.69;5086612;28;20690;-69
2021/07/23 10:55:22;;;;;;;8.43;7.18;;;;;;;32.97;31.04;101267.66;5094663;28;20179;-69
2021/07/23 10:58:07;;;;;;;9.65;7.05;;;;;;;33.42;31.17;101299.28;5091976;28;20203;-69
2021/07/23 11:00:48;;;;;;;9.70;7.05;;;;;;;33.23;31.33;101304.63;5089274;28;20216;-69
2021/07/23 11:03:32;;;;;;;8.35;6.40;;;;;;;33.57;31.18;101301.38;5096593;28;20183;-69
2021/07/23 11:05:59;;;;;;;9.68;7.03;;;;;;;33.57;31.18;101301.38;5105041;28;20179;-69
2021/07/23 11:08:25;;;;;;;9.50;6.95;;;;;;;33.77;31.14;101298.25;5098109;28;20183;-69
2021/07/23 11:10:54;;;;;;;8.98;7.13;;;;;;;33.90;30.52;101300.94;5099679;28;20690;-69
2021/07/23 11:13:22;;;;;;;10.32;7.05;;;;;;;33.95;29.88;101291.34;5102039;28;20719;-69
2021/07/23 11:15:47;;;;;;;10.48;7.30;;;;;;;34.13;30.65;101289.34;5103671;28;20191;-70
2021/07/23 11:18:15;;;;;;;10.07;7.18;;;;;;;33.87;29.69;101284.84;5092598;28;20199;-70